sensor_id;sensor_type;location;lat;lon;timestamp;temperature;humidity
20891;DHT22;10605;52.968;8.844;2023-02-01T00:00:05;5.70;99.90
20891;DHT22;10605;52.968;8.844;2023-02-01T00:02:31;5.70;99.90
20891;DHT22;10605;52.968;8.844;2023-02-01T00:04:57;5.60;99.90
20891;DHT22;10605;52.968;8.844;2023-02-01T00:07:22;5.60;99.90
20891;DHT22;10605;52.968;8.844;2023-02-01T00:09:48;5.60;99.90
20891;DHT22;10605;52.968;8.844;2023-02-01T00:12:13;5.60;99.90
20891;DHT22;10605;52.968;8.844;2023-02-01T00:14:39;5.60;99.90
20891;DHT22;10605;52.968;8.844;2023-02-01T00:17:05;5.60;99.90
20891;DHT22;10605;52.968;8.844;2023-02-01T00:19:32;5.60;99.90
20891;DHT22;10605;52.968;8.844;2023-02-01T00:21:58;5.70;99.90
20891;DHT22;10605;52.968;8.844;2023-02-01T00:24:24;5.70;99.90
20891;DHT22;10605;52.968;8.844;2023-02-01T00:26:49;5.70;99.90
20891;DHT22;10605;52.968;8.844;2023-02-01T00:29:18;5.80;99.90
20891;DHT22;10605;52.968;8.844;2023-02-01T00:31:44;5.80;99.90
20891;DHT22;10605;52.968;8.844;2023-02-01T00:34:13;5.80;99.90
20891;DHT22;10605;52.968;8.844;2023-02-01T00:36:39;5.80;99.90
20891;DHT22;10605;52.968;8.844;2023-02-01T00:39:04;5.80;99.90
20891;DHT22;10605;52.968;8.844;2023-02-01T00:41:30;5.80;99.90
20891;DHT22;10605;52.968;8.844;2023-02-01T00:43:56;5.80;99.90
20891;DHT22;10605;52.968;8.844;2023-02-01T00:46:21;5.80;99.90
20891;DHT22;10605;52.968;8.844;2023-02-01T00:48:48;5.80;99.90
20891;DHT22;10605;52.968;8.844;2023-02-01T00:51:20;5.70;99.90
20891;DHT22;10605;52.968;8.844;2023-02-01T00:53:47;5.70;99.90
20891;DHT22;10605;52.968;8.844;2023-02-01T00:56:12;5.70;99.90
20891;DHT22;10605;52.968;8.844;2023-02-01T00:58:38;5.70;99.90
20891;DHT22;10605;52.968;8.844;2023-02-01T01:03:35;5.70;99.90
20891;DHT22;10605;52.968;8.844;2023-02-01T01:06:05;5.70;99.90
20891;DHT22;10605;52.968;8.844;2023-02-01T01:08:31;5.70;99.90
20891;DHT22;10605;52.968;8.844;2023-02-01T01:10:57;5.70;99.90
20891;DHT22;10605;52.968;8.844;2023-02-01T01:13:22;5.70;99.90
20891;DHT22;10605;52.968;8.844;2023-02-01T01:15:48;5.80;99.90
20891;DHT22;10605;52.968;8.844;2023-02-01T01:18:14;5.80;99.90
20891;DHT22;10605;52.968;8.844;2023-02-01T01:20:40;5.80;99.90
20891;DHT22;10605;52.968;8.844;2023-02-01T01:23:07;5.80;99.90
20891;DHT22;10605;52.968;8.844;2023-02-01T01:25:40;5.80;99.90
20891;DHT22;10605;52.968;8.844;2023-02-01T01:28:07;5.80;99.90
20891;DHT22;10605;52.968;8.844;2023-02-01T01:30:34;5.70;99.90
20891;DHT22;10605;52.968;8.844;2023-02-01T01:33:00;5.70;99.90
20891;DHT22;10605;52.968;8.844;2023-02-01T01:35:26;5.80;99.90
20891;DHT22;10605;52.968;8.844;2023-02-01T01:37:53;5.80;99.90
20891;DHT22;10605;52.968;8.844;2023-02-01T01:40:19;5.80;99.90
20891;DHT22;10605;52.968;8.844;2023-02-01T01:42:45;5.80;99.90
20891;DHT22;10605;52.968;8.844;2023-02-01T01:48:04;5.80;99.90
20891;DHT22;10605;52.968;8.844;2023-02-01T01:50:41;5.70;99.90
20891;DHT22;10605;52.968;8.844;2023-02-01T01:53:11;5.70;99.90
20891;DHT22;10605;52.968;8.844;2023-02-01T01:55:41;5.70;99.90
20891;DHT22;10605;52.968;8.844;2023-02-01T01:58:17;5.70;99.90
20891;DHT22;10605;52.968;8.844;2023-02-01T02:00:44;5.60;99.90
20891;DHT22;10605;52.968;8.844;2023-02-01T02:03:39;5.70;99.90
20891;DHT22;10605;52.968;8.844;2023-02-01T02:06:15;5.60;99.90
20891;DHT22;10605;52.968;8.844;2023-02-01T02:08:42;5.60;99.90
20891;DHT22;10605;52.968;8.844;2023-02-01T02:11:07;5.70;99.90
20891;DHT22;10605;52.968;8.844;2023-02-01T02:13:38;5.70;99.90
20891;DHT22;10605;52.968;8.844;2023-02-01T02:33:39;5.50;99.90
20891;DHT22;10605;52.968;8.844;2023-02-01T02:36:14;5.50;99.90
20891;DHT22;10605;52.968;8.844;2023-02-01T02:44:57;5.60;99.90
20891;DHT22;10605;52.968;8.844;2023-02-01T02:56:27;5.60;99.90
20891;DHT22;10605;52.968;8.844;2023-02-01T02:59:15;5.60;99.90
20891;DHT22;10605;52.968;8.844;2023-02-01T03:01:59;5.60;99.90
20891;DHT22;10605;52.968;8.844;2023-02-01T03:04:43;5.60;99.90
20891;DHT22;10605;52.968;8.844;2023-02-01T03:13:11;5.60;99.90
20891;DHT22;10605;52.968;8.844;2023-02-01T03:15:47;5.60;99.90
20891;DHT22;10605;52.968;8.844;2023-02-01T03:18:35;5.60;99.90
20891;DHT22;10605;52.968;8.844;2023-02-01T03:21:06;5.60;99.90
20891;DHT22;10605;52.968;8.844;2023-02-01T03:23:35;5.60;99.90
20891;DHT22;10605;52.968;8.844;2023-02-01T03:26:03;5.60;99.90
20891;DHT22;10605;52.968;8.844;2023-02-01T03:28:32;5.60;99.90
20891;DHT22;10605;52.968;8.844;2023-02-01T03:31:00;5.60;99.90
20891;DHT22;10605;52.968;8.844;2023-02-01T03:33:27;5.60;99.90
20891;DHT22;10605;52.968;8.844;2023-02-01T03:41:37;5.50;99.90
20891;DHT22;10605;52.968;8.844;2023-02-01T03:44:11;5.50;99.90
20891;DHT22;10605;52.968;8.844;2023-02-01T03:46:43;5.40;99.90
20891;DHT22;10605;52.968;8.844;2023-02-01T03:49:17;5.40;99.90
20891;DHT22;10605;52.968;8.844;2023-02-01T03:51:43;5.40;99.90
20891;DHT22;10605;52.968;8.844;2023-02-01T03:54:13;5.30;99.90
20891;DHT22;10605;52.968;8.844;2023-02-01T03:56:42;5.30;99.90
20891;DHT22;10605;52.968;8.844;2023-02-01T03:59:10;5.30;99.90
20891;DHT22;10605;52.968;8.844;2023-02-01T04:01:36;5.30;99.90
20891;DHT22;10605;52.968;8.844;2023-02-01T04:04:02;5.30;99.90
20891;DHT22;10605;52.968;8.844;2023-02-01T04:06:28;5.30;99.90
20891;DHT22;10605;52.968;8.844;2023-02-01T04:08:53;5.20;99.90
20891;DHT22;10605;52.968;8.844;2023-02-01T04:11:19;5.20;99.90
20891;DHT22;10605;52.968;8.844;2023-02-01T04:13:45;5.20;99.90
20891;DHT22;10605;52.968;8.844;2023-02-01T04:16:11;5.20;99.90
20891;DHT22;10605;52.968;8.844;2023-02-01T04:18:36;5.20;99.90
20891;DHT22;10605;52.968;8.844;2023-02-01T04:21:02;5.20;99.90
20891;DHT22;10605;52.968;8.844;2023-02-01T04:23:29;5.20;99.90
20891;DHT22;10605;52.968;8.844;2023-02-01T04:25:59;5.10;99.90
20891;DHT22;10605;52.968;8.844;2023-02-01T04:28:26;5.20;99.90
20891;DHT22;10605;52.968;8.844;2023-02-01T04:30:52;5.10;99.90
20891;DHT22;10605;52.968;8.844;2023-02-01T04:33:17;5.20;99.90
20891;DHT22;10605;52.968;8.844;2023-02-01T04:35:43;5.20;99.90
20891;DHT22;10605;52.968;8.844;2023-02-01T04:38:09;5.20;99.90
20891;DHT22;10605;52.968;8.844;2023-02-01T04:40:34;5.20;99.90
20891;DHT22;10605;52.968;8.844;2023-02-01T04:43:03;5.20;99.90
20891;DHT22;10605;52.968;8.844;2023-02-01T04:45:29;5.10;99.90
20891;DHT22;10605;52.968;8.844;2023-02-01T04:47:54;5.20;99.90
20891;DHT22;10605;52.968;8.844;2023-02-01T04:50:20;5.20;99.90
20891;DHT22;10605;52.968;8.844;2023-02-01T04:52:46;5.10;99.90
20891;DHT22;10605;52.968;8.844;2023-02-01T04:55:12;5.10;99.90
20891;DHT22;10605;52.968;8.844;2023-02-01T04:57:39;5.10;99.90
20891;DHT22;10605;52.968;8.844;2023-02-01T05:00:07;5.20;99.90
20891;DHT22;10605;52.968;8.844;2023-02-01T05:02:33;5.20;99.90
20891;DHT22;10605;52.968;8.844;2023-02-01T05:05:00;5.20;99.90
20891;DHT22;10605;52.968;8.844;2023-02-01T05:07:26;5.30;99.90
20891;DHT22;10605;52.968;8.844;2023-02-01T05:09:52;5.30;99.90
20891;DHT22;10605;52.968;8.844;2023-02-01T05:12:17;5.30;99.90
20891;DHT22;10605;52.968;8.844;2023-02-01T05:15:02;5.40;99.90
20891;DHT22;10605;52.968;8.844;2023-02-01T05:17:27;5.30;99.90
20891;DHT22;10605;52.968;8.844;2023-02-01T05:19:53;5.30;99.90
20891;DHT22;10605;52.968;8.844;2023-02-01T05:22:19;5.30;99.90
20891;DHT22;10605;52.968;8.844;2023-02-01T05:24:44;5.40;99.90
20891;DHT22;10605;52.968;8.844;2023-02-01T05:27:10;5.30;99.90
20891;DHT22;10605;52.968;8.844;2023-02-01T05:29:36;5.30;99.90
20891;DHT22;10605;52.968;8.844;2023-02-01T05:32:02;5.30;99.90
20891;DHT22;10605;52.968;8.844;2023-02-01T05:34:28;5.30;99.90
20891;DHT22;10605;52.968;8.844;2023-02-01T05:36:53;5.30;99.90
20891;DHT22;10605;52.968;8.844;2023-02-01T05:39:19;5.20;99.90
20891;DHT22;10605;52.968;8.844;2023-02-01T05:41:45;5.30;99.90
20891;DHT22;10605;52.968;8.844;2023-02-01T05:44:11;5.20;99.90
20891;DHT22;10605;52.968;8.844;2023-02-01T05:46:37;5.10;99.90
20891;DHT22;10605;52.968;8.844;2023-02-01T05:49:03;5.10;99.90
20891;DHT22;10605;52.968;8.844;2023-02-01T05:51:29;5.10;99.90
20891;DHT22;10605;52.968;8.844;2023-02-01T05:53:55;5.10;99.90
20891;DHT22;10605;52.968;8.844;2023-02-01T05:56:20;5.10;99.90
20891;DHT22;10605;52.968;8.844;2023-02-01T05:58:46;5.10;99.90
20891;DHT22;10605;52.968;8.844;2023-02-01T06:01:11;5.10;99.90
20891;DHT22;10605;52.968;8.844;2023-02-01T06:03:37;5.10;99.90
20891;DHT22;10605;52.968;8.844;2023-02-01T06:06:03;5.10;99.90
20891;DHT22;10605;52.968;8.844;2023-02-01T06:08:29;5.10;99.90
20891;DHT22;10605;52.968;8.844;2023-02-01T06:11:02;5.10;99.90
20891;DHT22;10605;52.968;8.844;2023-02-01T06:13:29;5.10;99.90
20891;DHT22;10605;52.968;8.844;2023-02-01T06:15:55;5.10;99.90
20891;DHT22;10605;52.968;8.844;2023-02-01T06:18:23;5.10;99.90
20891;DHT22;10605;52.968;8.844;2023-02-01T06:20:55;5.20;99.90
20891;DHT22;10605;52.968;8.844;2023-02-01T06:23:21;5.30;99.90
20891;DHT22;10605;52.968;8.844;2023-02-01T06:25:52;5.30;99.90
20891;DHT22;10605;52.968;8.844;2023-02-01T06:28:18;5.40;99.90
20891;DHT22;10605;52.968;8.844;2023-02-01T06:30:44;5.40;99.90
20891;DHT22;10605;52.968;8.844;2023-02-01T06:33:13;5.40;99.90
20891;DHT22;10605;52.968;8.844;2023-02-01T06:35:41;5.40;99.90
20891;DHT22;10605;52.968;8.844;2023-02-01T06:38:07;5.40;99.90
20891;DHT22;10605;52.968;8.844;2023-02-01T06:40:33;5.40;99.90
20891;DHT22;10605;52.968;8.844;2023-02-01T06:42:59;5.40;99.90
20891;DHT22;10605;52.968;8.844;2023-02-01T06:45:24;5.40;99.90
20891;DHT22;10605;52.968;8.844;2023-02-01T06:47:50;5.40;99.90
20891;DHT22;10605;52.968;8.844;2023-02-01T06:50:16;5.40;99.90
20891;DHT22;10605;52.968;8.844;2023-02-01T06:52:42;5.40;99.90
20891;DHT22;10605;52.968;8.844;2023-02-01T06:55:08;5.30;99.90
20891;DHT22;10605;52.968;8.844;2023-02-01T06:57:34;5.30;99.90
20891;DHT22;10605;52.968;8.844;2023-02-01T07:00:04;5.30;99.90
20891;DHT22;10605;52.968;8.844;2023-02-01T07:02:30;5.30;99.90
20891;DHT22;10605;52.968;8.844;2023-02-01T07:04:56;5.40;99.90
20891;DHT22;10605;52.968;8.844;2023-02-01T07:07:22;5.30;99.90
20891;DHT22;10605;52.968;8.844;2023-02-01T07:09:50;5.30;99.90
20891;DHT22;10605;52.968;8.844;2023-02-01T07:12:16;5.30;99.90
20891;DHT22;10605;52.968;8.844;2023-02-01T07:14:42;5.30;99.90
20891;DHT22;10605;52.968;8.844;2023-02-01T07:17:08;5.30;99.90
20891;DHT22;10605;52.968;8.844;2023-02-01T07:19:33;5.30;99.90
20891;DHT22;10605;52.968;8.844;2023-02-01T07:21:59;5.30;99.90
20891;DHT22;10605;52.968;8.844;2023-02-01T07:24:24;5.30;99.90
20891;DHT22;10605;52.968;8.844;2023-02-01T07:26:50;5.30;99.90
20891;DHT22;10605;52.968;8.844;2023-02-01T07:29:17;5.30;99.90
20891;DHT22;10605;52.968;8.844;2023-02-01T07:31:43;5.40;99.90
20891;DHT22;10605;52.968;8.844;2023-02-01T07:34:09;5.50;99.90
20891;DHT22;10605;52.968;8.844;2023-02-01T07:36:34;5.50;99.90
20891;DHT22;10605;52.968;8.844;2023-02-01T07:39:02;5.50;99.90
20891;DHT22;10605;52.968;8.844;2023-02-01T07:41:28;5.50;99.90
20891;DHT22;10605;52.968;8.844;2023-02-01T07:43:54;5.60;99.90
20891;DHT22;10605;52.968;8.844;2023-02-01T07:46:20;5.60;99.90
20891;DHT22;10605;52.968;8.844;2023-02-01T07:48:46;5.70;99.90
20891;DHT22;10605;52.968;8.844;2023-02-01T07:51:14;5.60;99.90
20891;DHT22;10605;52.968;8.844;2023-02-01T07:53:40;5.70;99.90
20891;DHT22;10605;52.968;8.844;2023-02-01T07:56:13;5.70;99.90
20891;DHT22;10605;52.968;8.844;2023-02-01T07:58:40;5.70;99.90
20891;DHT22;10605;52.968;8.844;2023-02-01T08:01:10;5.70;99.90
20891;DHT22;10605;52.968;8.844;2023-02-01T08:03:59;5.80;99.90
20891;DHT22;10605;52.968;8.844;2023-02-01T08:06:26;5.70;99.90
20891;DHT22;10605;52.968;8.844;2023-02-01T08:08:53;5.60;99.90
20891;DHT22;10605;52.968;8.844;2023-02-01T08:11:21;5.60;99.90
20891;DHT22;10605;52.968;8.844;2023-02-01T08:13:47;5.50;99.90
20891;DHT22;10605;52.968;8.844;2023-02-01T08:16:15;5.60;99.90
20891;DHT22;10605;52.968;8.844;2023-02-01T08:18:41;5.60;99.90
20891;DHT22;10605;52.968;8.844;2023-02-01T08:21:15;5.50;99.90
20891;DHT22;10605;52.968;8.844;2023-02-01T08:23:42;5.50;99.90
20891;DHT22;10605;52.968;8.844;2023-02-01T08:26:25;5.50;99.90
20891;DHT22;10605;52.968;8.844;2023-02-01T08:29:01;5.70;99.90
20891;DHT22;10605;52.968;8.844;2023-02-01T08:31:29;5.80;99.90
20891;DHT22;10605;52.968;8.844;2023-02-01T08:33:58;5.70;99.90
20891;DHT22;10605;52.968;8.844;2023-02-01T08:36:25;5.70;99.90
20891;DHT22;10605;52.968;8.844;2023-02-01T08:38:51;5.80;99.90
20891;DHT22;10605;52.968;8.844;2023-02-01T08:41:20;5.90;99.90
20891;DHT22;10605;52.968;8.844;2023-02-01T08:43:47;6.10;99.90
20891;DHT22;10605;52.968;8.844;2023-02-01T08:46:13;6.30;99.90
20891;DHT22;10605;52.968;8.844;2023-02-01T08:48:39;6.50;99.90
20891;DHT22;10605;52.968;8.844;2023-02-01T08:51:10;6.60;99.90
20891;DHT22;10605;52.968;8.844;2023-02-01T08:53:37;6.50;99.90
20891;DHT22;10605;52.968;8.844;2023-02-01T08:56:04;6.50;99.90
20891;DHT22;10605;52.968;8.844;2023-02-01T08:58:30;6.60;99.90
20891;DHT22;10605;52.968;8.844;2023-02-01T09:00:55;6.40;99.90
20891;DHT22;10605;52.968;8.844;2023-02-01T09:03:21;6.40;99.90
20891;DHT22;10605;52.968;8.844;2023-02-01T09:05:47;6.30;99.90
20891;DHT22;10605;52.968;8.844;2023-02-01T09:08:13;6.40;99.90
20891;DHT22;10605;52.968;8.844;2023-02-01T09:10:41;6.50;99.90
20891;DHT22;10605;52.968;8.844;2023-02-01T09:13:08;6.80;99.90
20891;DHT22;10605;52.968;8.844;2023-02-01T09:15:34;7.20;99.90
20891;DHT22;10605;52.968;8.844;2023-02-01T09:17:59;7.20;99.90
20891;DHT22;10605;52.968;8.844;2023-02-01T09:20:25;7.00;99.90
20891;DHT22;10605;52.968;8.844;2023-02-01T09:22:54;7.00;99.90
20891;DHT22;10605;52.968;8.844;2023-02-01T09:25:20;7.10;99.90
20891;DHT22;10605;52.968;8.844;2023-02-01T09:27:46;7.40;99.90
20891;DHT22;10605;52.968;8.844;2023-02-01T09:30:12;7.50;99.90
20891;DHT22;10605;52.968;8.844;2023-02-01T09:32:38;7.40;99.90
20891;DHT22;10605;52.968;8.844;2023-02-01T09:35:04;7.30;99.90
20891;DHT22;10605;52.968;8.844;2023-02-01T09:37:29;7.10;99.90
20891;DHT22;10605;52.968;8.844;2023-02-01T09:39:55;7.00;99.90
20891;DHT22;10605;52.968;8.844;2023-02-01T09:42:45;7.00;99.90
20891;DHT22;10605;52.968;8.844;2023-02-01T09:45:27;7.10;99.90
20891;DHT22;10605;52.968;8.844;2023-02-01T09:48:00;7.10;99.90
20891;DHT22;10605;52.968;8.844;2023-02-01T09:50:36;7.30;99.90
20891;DHT22;10605;52.968;8.844;2023-02-01T09:53:30;7.30;99.90
20891;DHT22;10605;52.968;8.844;2023-02-01T09:58:43;7.40;99.90
20891;DHT22;10605;52.968;8.844;2023-02-01T10:01:21;7.40;99.90
20891;DHT22;10605;52.968;8.844;2023-02-01T10:03:48;7.30;99.90
20891;DHT22;10605;52.968;8.844;2023-02-01T10:17:45;7.00;99.90
20891;DHT22;10605;52.968;8.844;2023-02-01T10:26:05;7.00;99.90
20891;DHT22;10605;52.968;8.844;2023-02-01T10:28:38;6.90;99.90
20891;DHT22;10605;52.968;8.844;2023-02-01T10:31:05;6.90;99.90
20891;DHT22;10605;52.968;8.844;2023-02-01T10:33:37;6.80;99.90
20891;DHT22;10605;52.968;8.844;2023-02-01T10:36:42;6.80;99.90
20891;DHT22;10605;52.968;8.844;2023-02-01T10:39:02;6.80;99.90
20891;DHT22;10605;52.968;8.844;2023-02-01T10:41:36;6.70;99.90
20891;DHT22;10605;52.968;8.844;2023-02-01T10:44:10;6.60;99.90
20891;DHT22;10605;52.968;8.844;2023-02-01T10:46:37;6.70;99.90
20891;DHT22;10605;52.968;8.844;2023-02-01T10:49:04;6.80;99.90
20891;DHT22;10605;52.968;8.844;2023-02-01T10:54:37;7.30;99.90
20891;DHT22;10605;52.968;8.844;2023-02-01T10:57:23;7.50;99.90
20891;DHT22;10605;52.968;8.844;2023-02-01T10:59:51;7.50;99.90
20891;DHT22;10605;52.968;8.844;2023-02-01T11:04:46;7.30;99.90
20891;DHT22;10605;52.968;8.844;2023-02-01T11:07:24;7.20;99.90
20891;DHT22;10605;52.968;8.844;2023-02-01T11:09:52;7.30;99.90
20891;DHT22;10605;52.968;8.844;2023-02-01T11:12:38;7.20;99.90
20891;DHT22;10605;52.968;8.844;2023-02-01T11:17:45;6.90;99.90
20891;DHT22;10605;52.968;8.844;2023-02-01T11:20:17;6.70;99.90
20891;DHT22;10605;52.968;8.844;2023-02-01T11:22:54;6.60;99.90
20891;DHT22;10605;52.968;8.844;2023-02-01T11:25:21;6.70;99.90
20891;DHT22;10605;52.968;8.844;2023-02-01T11:27:49;7.20;99.90
20891;DHT22;10605;52.968;8.844;2023-02-01T11:30:34;7.20;99.90
20891;DHT22;10605;52.968;8.844;2023-02-01T11:33:04;7.20;99.90
20891;DHT22;10605;52.968;8.844;2023-02-01T11:35:31;7.00;99.90
20891;DHT22;10605;52.968;8.844;2023-02-01T11:37:58;6.80;99.90
20891;DHT22;10605;52.968;8.844;2023-02-01T11:42:58;6.40;99.90
20891;DHT22;10605;52.968;8.844;2023-02-01T11:45:30;6.30;99.90
20891;DHT22;10605;52.968;8.844;2023-02-01T11:47:58;6.30;99.90
20891;DHT22;10605;52.968;8.844;2023-02-01T11:56:22;6.30;99.90
20891;DHT22;10605;52.968;8.844;2023-02-01T12:07:23;6.20;99.90
20891;DHT22;10605;52.968;8.844;2023-02-01T12:21:38;6.00;99.90
20891;DHT22;10605;52.968;8.844;2023-02-01T12:30:02;5.90;99.90
20891;DHT22;10605;52.968;8.844;2023-02-01T12:35:33;5.20;99.90
20891;DHT22;10605;52.968;8.844;2023-02-01T12:38:29;4.90;99.90
20891;DHT22;10605;52.968;8.844;2023-02-01T12:43:47;4.50;99.90
20891;DHT22;10605;52.968;8.844;2023-02-01T12:46:16;4.50;99.90
20891;DHT22;10605;52.968;8.844;2023-02-01T12:49:02;4.50;99.90
20891;DHT22;10605;52.968;8.844;2023-02-01T12:51:33;4.40;99.90
20891;DHT22;10605;52.968;8.844;2023-02-01T12:54:22;4.40;99.90
20891;DHT22;10605;52.968;8.844;2023-02-01T12:56:57;4.60;99.90
20891;DHT22;10605;52.968;8.844;2023-02-01T12:59:26;4.90;99.90
20891;DHT22;10605;52.968;8.844;2023-02-01T13:03:01;5.30;99.90
20891;DHT22;10605;52.968;8.844;2023-02-01T13:05:55;5.50;99.90
20891;DHT22;10605;52.968;8.844;2023-02-01T13:07:51;5.70;99.90
20891;DHT22;10605;52.968;8.844;2023-02-01T13:16:24;5.40;99.90
20891;DHT22;10605;52.968;8.844;2023-02-01T13:18:27;5.20;99.90
20891;DHT22;10605;52.968;8.844;2023-02-01T13:21:08;5.30;99.90
20891;DHT22;10605;52.968;8.844;2023-02-01T13:23:40;5.30;99.90
20891;DHT22;10605;52.968;8.844;2023-02-01T13:26:09;5.40;99.90
20891;DHT22;10605;52.968;8.844;2023-02-01T13:29:14;5.40;99.90
20891;DHT22;10605;52.968;8.844;2023-02-01T13:31:55;5.70;99.90
20891;DHT22;10605;52.968;8.844;2023-02-01T13:34:51;5.90;99.90
20891;DHT22;10605;52.968;8.844;2023-02-01T13:43:00;5.90;99.90
20891;DHT22;10605;52.968;8.844;2023-02-01T13:45:32;5.70;99.90
20891;DHT22;10605;52.968;8.844;2023-02-01T13:48:04;5.50;99.90
20891;DHT22;10605;52.968;8.844;2023-02-01T13:50:34;5.80;99.90
20891;DHT22;10605;52.968;8.844;2023-02-01T13:53:03;5.80;99.90
20891;DHT22;10605;52.968;8.844;2023-02-01T13:55:37;5.90;99.90
20891;DHT22;10605;52.968;8.844;2023-02-01T13:58:22;5.90;99.90
20891;DHT22;10605;52.968;8.844;2023-02-01T14:03:57;5.90;99.90
20891;DHT22;10605;52.968;8.844;2023-02-01T14:21:52;5.50;99.90
20891;DHT22;10605;52.968;8.844;2023-02-01T14:26:56;5.60;99.90
20891;DHT22;10605;52.968;8.844;2023-02-01T14:29:42;5.50;99.90
20891;DHT22;10605;52.968;8.844;2023-02-01T14:32:24;5.60;99.90
20891;DHT22;10605;52.968;8.844;2023-02-01T14:34:56;5.70;99.90
20891;DHT22;10605;52.968;8.844;2023-02-01T14:37:34;5.70;99.90
20891;DHT22;10605;52.968;8.844;2023-02-01T14:50:44;6.20;99.90
20891;DHT22;10605;52.968;8.844;2023-02-01T14:56:00;6.30;99.90
20891;DHT22;10605;52.968;8.844;2023-02-01T15:01:02;6.40;99.90
20891;DHT22;10605;52.968;8.844;2023-02-01T15:06:43;6.90;99.90
20891;DHT22;10605;52.968;8.844;2023-02-01T15:09:14;6.70;99.90
20891;DHT22;10605;52.968;8.844;2023-02-01T15:14:27;6.80;99.90
20891;DHT22;10605;52.968;8.844;2023-02-01T15:16:53;6.80;99.90
20891;DHT22;10605;52.968;8.844;2023-02-01T15:19:27;7.20;99.90
20891;DHT22;10605;52.968;8.844;2023-02-01T15:21:55;7.40;99.90
20891;DHT22;10605;52.968;8.844;2023-02-01T15:24:27;7.30;99.90
20891;DHT22;10605;52.968;8.844;2023-02-01T15:34:43;6.90;99.90
20891;DHT22;10605;52.968;8.844;2023-02-01T15:41:31;6.70;99.90
20891;DHT22;10605;52.968;8.844;2023-02-01T15:45:02;6.70;99.90
20891;DHT22;10605;52.968;8.844;2023-02-01T16:12:02;6.70;99.90
20891;DHT22;10605;52.968;8.844;2023-02-01T16:18:26;6.70;99.90
20891;DHT22;10605;52.968;8.844;2023-02-01T16:20:52;6.70;99.90
20891;DHT22;10605;52.968;8.844;2023-02-01T16:23:18;6.60;99.90
20891;DHT22;10605;52.968;8.844;2023-02-01T16:25:45;6.50;99.90
20891;DHT22;10605;52.968;8.844;2023-02-01T16:28:11;6.30;99.90
20891;DHT22;10605;52.968;8.844;2023-02-01T16:30:37;6.20;99.90
20891;DHT22;10605;52.968;8.844;2023-02-01T16:33:03;6.10;99.90
20891;DHT22;10605;52.968;8.844;2023-02-01T16:35:33;6.10;99.90
20891;DHT22;10605;52.968;8.844;2023-02-01T16:38:09;6.00;99.90
20891;DHT22;10605;52.968;8.844;2023-02-01T16:40:39;6.00;99.90
20891;DHT22;10605;52.968;8.844;2023-02-01T16:43:24;6.00;99.90
20891;DHT22;10605;52.968;8.844;2023-02-01T16:45:53;6.00;99.90
20891;DHT22;10605;52.968;8.844;2023-02-01T16:48:35;5.90;99.90
20891;DHT22;10605;52.968;8.844;2023-02-01T16:51:22;5.60;99.90
20891;DHT22;10605;52.968;8.844;2023-02-01T16:53:48;5.40;99.90
20891;DHT22;10605;52.968;8.844;2023-02-01T16:56:23;5.30;99.90
20891;DHT22;10605;52.968;8.844;2023-02-01T16:58:49;5.20;99.90
20891;DHT22;10605;52.968;8.844;2023-02-01T17:01:17;5.20;99.90
20891;DHT22;10605;52.968;8.844;2023-02-01T17:03:48;5.20;99.90
20891;DHT22;10605;52.968;8.844;2023-02-01T17:06:18;5.20;99.90
20891;DHT22;10605;52.968;8.844;2023-02-01T17:08:47;5.10;99.90
20891;DHT22;10605;52.968;8.844;2023-02-01T17:11:15;5.10;99.90
20891;DHT22;10605;52.968;8.844;2023-02-01T17:13:41;5.00;99.90
20891;DHT22;10605;52.968;8.844;2023-02-01T17:16:27;5.00;99.90
20891;DHT22;10605;52.968;8.844;2023-02-01T17:19:00;5.00;99.90
20891;DHT22;10605;52.968;8.844;2023-02-01T17:21:29;5.10;99.90
20891;DHT22;10605;52.968;8.844;2023-02-01T17:23:56;5.30;99.90
20891;DHT22;10605;52.968;8.844;2023-02-01T17:26:24;5.40;99.90
20891;DHT22;10605;52.968;8.844;2023-02-01T17:28:50;5.40;99.90
20891;DHT22;10605;52.968;8.844;2023-02-01T17:31:16;5.50;99.90
20891;DHT22;10605;52.968;8.844;2023-02-01T17:33:43;5.70;99.90
20891;DHT22;10605;52.968;8.844;2023-02-01T17:36:12;5.70;99.90
20891;DHT22;10605;52.968;8.844;2023-02-01T17:38:38;5.80;99.90
20891;DHT22;10605;52.968;8.844;2023-02-01T17:41:04;5.90;99.90
20891;DHT22;10605;52.968;8.844;2023-02-01T17:43:30;6.00;99.90
20891;DHT22;10605;52.968;8.844;2023-02-01T17:48:30;6.00;99.90
20891;DHT22;10605;52.968;8.844;2023-02-01T17:50:56;6.00;99.90
20891;DHT22;10605;52.968;8.844;2023-02-01T17:53:25;6.00;99.90
20891;DHT22;10605;52.968;8.844;2023-02-01T17:55:52;6.00;99.90
20891;DHT22;10605;52.968;8.844;2023-02-01T17:58:18;6.00;99.90
20891;DHT22;10605;52.968;8.844;2023-02-01T18:00:46;6.10;99.90
20891;DHT22;10605;52.968;8.844;2023-02-01T18:03:29;6.10;99.90
20891;DHT22;10605;52.968;8.844;2023-02-01T18:05:57;6.20;99.90
20891;DHT22;10605;52.968;8.844;2023-02-01T18:08:26;6.10;99.90
20891;DHT22;10605;52.968;8.844;2023-02-01T18:10:54;6.00;99.90
20891;DHT22;10605;52.968;8.844;2023-02-01T18:13:20;5.90;99.90
20891;DHT22;10605;52.968;8.844;2023-02-01T18:15:46;6.10;99.90
20891;DHT22;10605;52.968;8.844;2023-02-01T18:18:12;6.20;99.90
20891;DHT22;10605;52.968;8.844;2023-02-01T18:20:40;6.10;99.90
20891;DHT22;10605;52.968;8.844;2023-02-01T18:23:20;6.10;99.90
20891;DHT22;10605;52.968;8.844;2023-02-01T18:25:46;6.10;99.90
20891;DHT22;10605;52.968;8.844;2023-02-01T18:28:15;6.10;99.90
20891;DHT22;10605;52.968;8.844;2023-02-01T18:30:43;6.10;99.90
20891;DHT22;10605;52.968;8.844;2023-02-01T18:33:13;6.10;99.90
20891;DHT22;10605;52.968;8.844;2023-02-01T18:35:39;6.10;99.90
20891;DHT22;10605;52.968;8.844;2023-02-01T18:38:05;6.10;99.90
20891;DHT22;10605;52.968;8.844;2023-02-01T18:40:33;6.10;99.90
20891;DHT22;10605;52.968;8.844;2023-02-01T18:42:59;6.20;99.90
20891;DHT22;10605;52.968;8.844;2023-02-01T18:47:58;6.20;99.90
20891;DHT22;10605;52.968;8.844;2023-02-01T18:50:26;6.20;99.90
20891;DHT22;10605;52.968;8.844;2023-02-01T18:52:54;6.20;99.90
20891;DHT22;10605;52.968;8.844;2023-02-01T18:55:20;6.30;99.90
20891;DHT22;10605;52.968;8.844;2023-02-01T18:57:46;6.30;99.90
20891;DHT22;10605;52.968;8.844;2023-02-01T19:00:12;6.30;99.90
20891;DHT22;10605;52.968;8.844;2023-02-01T19:02:38;6.30;99.90
20891;DHT22;10605;52.968;8.844;2023-02-01T19:05:06;6.20;99.90
20891;DHT22;10605;52.968;8.844;2023-02-01T19:07:33;6.20;99.90
20891;DHT22;10605;52.968;8.844;2023-02-01T19:09:59;6.20;99.90
20891;DHT22;10605;52.968;8.844;2023-02-01T19:12:26;6.20;99.90
20891;DHT22;10605;52.968;8.844;2023-02-01T19:14:51;6.20;99.90
20891;DHT22;10605;52.968;8.844;2023-02-01T19:17:17;6.20;99.90
20891;DHT22;10605;52.968;8.844;2023-02-01T19:19:42;6.20;99.90
20891;DHT22;10605;52.968;8.844;2023-02-01T19:22:10;6.20;99.90
20891;DHT22;10605;52.968;8.844;2023-02-01T19:24:36;6.20;99.90
20891;DHT22;10605;52.968;8.844;2023-02-01T19:27:01;6.20;99.90
20891;DHT22;10605;52.968;8.844;2023-02-01T19:29:27;6.20;99.90
20891;DHT22;10605;52.968;8.844;2023-02-01T19:31:53;6.20;99.90
20891;DHT22;10605;52.968;8.844;2023-02-01T19:34:19;6.10;99.90
20891;DHT22;10605;52.968;8.844;2023-02-01T19:36:45;6.10;99.90